createdAt,value
2019-05-03T00:03:07.830Z,7.50
2019-05-03T00:07:25.038Z,8.23
2019-05-03T00:11:42.218Z,8.87
2019-05-03T00:16:02.572Z,10.90
2019-05-03T00:20:19.332Z,12.17
2019-05-03T00:24:35.968Z,12.90
2019-05-03T00:28:53.466Z,8.90
2019-05-03T00:33:11.769Z,9.57
2019-05-03T00:37:33.382Z,11.87
2019-05-03T00:41:51.993Z,11.27
2019-05-03T00:46:08.407Z,7.93
2019-05-03T00:50:24.894Z,7.40
2019-05-03T00:54:42.354Z,6.20
2019-05-03T00:58:59.101Z,8.43
2019-05-03T01:03:15.558Z,11.13
2019-05-03T01:07:32.122Z,17.03
2019-05-03T01:11:48.575Z,21.77
2019-05-03T01:16:07.031Z,24.23
2019-05-03T01:20:23.508Z,18.40
2019-05-03T01:24:40.025Z,15.70
2019-05-03T01:28:56.612Z,15.00
2019-05-03T01:33:13.120Z,13.83
2019-05-03T01:37:29.560Z,10.70
2019-05-03T01:41:46.113Z,16.63
2019-05-03T01:46:02.918Z,21.20
2019-05-03T01:50:28.311Z,18.07
2019-05-03T01:54:44.864Z,14.63
2019-05-03T01:59:01.853Z,15.10
2019-05-03T02:03:37.330Z,14.03
2019-05-03T02:07:53.796Z,12.20
2019-05-03T02:12:10.291Z,20.37
2019-05-03T02:16:26.748Z,23.03
2019-05-03T02:20:44.336Z,21.23
2019-05-03T02:25:01.758Z,21.10
2019-05-03T02:29:18.658Z,18.37
2019-05-03T02:33:35.195Z,20.73
2019-05-03T02:37:54.281Z,23.33
2019-05-03T02:42:11.794Z,20.53
2019-05-03T02:46:45.744Z,20.87
2019-05-03T02:51:02.216Z,17.50
2019-05-03T02:55:18.929Z,22.43
2019-05-03T02:59:35.428Z,16.60
2019-05-03T03:03:52.688Z,9.73
2019-05-03T03:08:10.084Z,9.03
2019-05-03T03:12:28.647Z,7.00
2019-05-03T03:16:49.431Z,5.37
2019-05-03T03:21:11.424Z,6.37
2019-05-03T03:25:35.978Z,5.90
2019-05-03T03:30:07.826Z,6.60
2019-05-03T03:34:30.419Z,8.23
2019-05-03T03:38:47.010Z,7.10
2019-05-03T03:43:05.411Z,5.60
2019-05-03T03:47:26.991Z,4.40
2019-05-03T03:51:46.462Z,5.23
2019-05-03T03:56:05.524Z,5.53
2019-05-03T04:00:21.960Z,5.60
2019-05-03T04:04:39.033Z,5.83
2019-05-03T04:08:56.229Z,6.00
2019-05-03T04:13:16.007Z,6.80
2019-05-03T04:17:51.401Z,7.50
2019-05-03T04:22:10.993Z,6.27
2019-05-03T04:26:29.873Z,5.17
2019-05-03T04:30:47.133Z,5.17
2019-05-03T04:35:05.471Z,6.93
2019-05-03T04:39:25.382Z,6.23
2019-05-03T04:43:40.866Z,5.53
2019-05-03T04:47:57.485Z,7.70
2019-05-03T04:52:16.497Z,6.70
2019-05-03T04:56:35.863Z,7.43
2019-05-03T05:00:51.525Z,6.77
2019-05-03T05:05:09.121Z,7.70
2019-05-03T05:09:26.039Z,6.47
2019-05-03T05:13:42.816Z,7.40
2019-05-03T05:18:01.357Z,8.80
2019-05-03T05:22:34.831Z,8.73
2019-05-03T05:26:55.018Z,8.33
2019-05-03T05:31:11.618Z,6.73
2019-05-03T05:35:28.112Z,9.33
2019-05-03T05:39:44.838Z,8.37
2019-05-03T05:44:01.537Z,10.20
2019-05-03T05:48:24.600Z,9.50
2019-05-03T05:52:41.343Z,9.63
2019-05-03T05:56:59.748Z,8.77
2019-05-03T06:01:16.318Z,10.43
2019-05-03T06:05:32.938Z,8.70
2019-05-03T06:09:51.648Z,9.83
2019-05-03T06:14:12.562Z,10.40
2019-05-03T06:18:48.445Z,9.87
2019-05-03T06:23:06.942Z,11.13
2019-05-03T06:27:25.397Z,12.57
2019-05-03T06:32:00.326Z,9.20
2019-05-03T06:36:16.987Z,6.27
2019-05-03T06:40:35.399Z,4.93
2019-05-03T06:44:54.097Z,6.10
2019-05-03T06:49:14.960Z,4.87
2019-05-03T06:53:31.326Z,6.13
2019-05-03T06:57:49.803Z,5.10
2019-05-03T07:02:25.183Z,6.17
2019-05-03T07:06:46.605Z,4.77
2019-05-03T07:11:05.436Z,4.07
2019-05-03T07:15:22.275Z,3.20
2019-05-03T07:19:39.116Z,2.90
2019-05-03T07:23:56.025Z,2.90
2019-05-03T07:28:14.733Z,3.30
2019-05-03T07:32:31.504Z,3.70
2019-05-03T07:36:48.151Z,3.10
2019-05-03T07:41:05.266Z,4.00
2019-05-03T07:45:22.071Z,3.57
2019-05-03T07:49:38.986Z,3.30
2019-05-03T07:53:55.758Z,4.10
2019-05-03T07:58:15.089Z,3.87
2019-05-03T08:02:31.882Z,3.70
2019-05-03T08:06:48.471Z,3.80
2019-05-03T08:11:05.451Z,4.23
2019-05-03T08:15:24.061Z,3.27
2019-05-03T08:19:40.754Z,3.07
2019-05-03T08:23:57.400Z,2.97
2019-05-03T08:28:14.703Z,3.00
2019-05-03T08:32:36.310Z,3.10
2019-05-03T08:36:54.936Z,3.50
2019-05-03T08:41:14.550Z,3.43
2019-05-03T08:45:31.435Z,2.83
2019-05-03T08:49:48.056Z,3.70
2019-05-03T08:54:04.813Z,3.27
2019-05-03T08:58:21.373Z,4.13
2019-05-03T09:02:38.227Z,3.60
2019-05-03T09:06:55.187Z,4.00
2019-05-03T09:11:15.510Z,4.90
2019-05-03T09:15:35.091Z,4.60
2019-05-03T09:19:51.838Z,3.77
2019-05-03T09:24:08.390Z,3.97
2019-05-03T09:28:26.476Z,4.53
2019-05-03T09:32:44.758Z,3.80
2019-05-03T09:37:01.508Z,3.57
2019-05-03T09:41:18.430Z,3.50
2019-05-03T09:45:35.404Z,3.67
2019-05-03T09:49:52.074Z,3.93
2019-05-03T09:54:19.483Z,3.63
2019-05-03T09:58:38.119Z,3.23
2019-05-03T10:02:54.799Z,4.00
2019-05-03T10:07:11.733Z,3.10
2019-05-03T10:11:28.301Z,2.40
2019-05-03T10:15:45.147Z,2.70
2019-05-03T10:20:06.612Z,2.87
2019-05-03T10:24:23.268Z,2.40
2019-05-03T10:28:40.197Z,2.73
2019-05-03T10:33:15.718Z,3.03
2019-05-03T10:37:35.887Z,3.00
2019-05-03T10:41:54.926Z,3.20
2019-05-03T10:46:11.162Z,2.90
2019-05-03T10:50:27.760Z,2.73
2019-05-03T10:54:45.939Z,2.60
2019-05-03T10:59:09.945Z,2.50
2019-05-03T11:03:27.138Z,2.50
2019-05-03T11:07:45.134Z,2.47
2019-05-03T11:12:05.203Z,2.80
2019-05-03T11:16:21.788Z,2.87
2019-05-03T11:20:38.421Z,2.47
2019-05-03T11:24:54.892Z,2.40
2019-05-03T11:29:11.439Z,2.60
2019-05-03T11:33:38.852Z,2.50
2019-05-03T11:37:57.233Z,2.50
2019-05-03T11:42:15.304Z,2.80
2019-05-03T11:46:32.458Z,2.80
2019-05-03T11:50:49.171Z,2.40
2019-05-03T11:55:11.453Z,2.23
2019-05-03T11:59:25.411Z,2.77
2019-05-03T12:03:47.645Z,2.30
2019-05-03T12:08:05.450Z,2.73
2019-05-03T12:12:24.511Z,2.23
2019-05-03T12:17:17.294Z,2.33
2019-05-03T12:21:08.128Z,2.03
2019-05-03T12:25:25.730Z,2.40
2019-05-03T12:29:41.780Z,2.30
2019-05-03T12:33:58.178Z,2.37
2019-05-03T12:38:16.469Z,2.30
2019-05-03T12:42:35.500Z,2.30
2019-05-03T12:46:51.848Z,2.17
2019-05-03T12:51:08.917Z,2.23
2019-05-03T12:55:25.976Z,1.93
2019-05-03T12:59:45.026Z,1.90
2019-05-03T13:04:05.730Z,2.07
2019-05-03T13:08:31.656Z,1.93
2019-05-03T13:12:52.434Z,2.07
2019-05-03T13:17:07.699Z,2.20
2019-05-03T13:21:25.275Z,1.83
2019-05-03T13:25:41.969Z,2.17
2019-05-03T13:29:58.583Z,2.10
2019-05-03T13:34:15.926Z,1.90
2019-05-03T13:38:34.708Z,2.03
2019-05-03T13:42:57.717Z,1.93
2019-05-03T13:47:09.472Z,2.17
2019-05-03T13:51:26.096Z,2.27
2019-05-03T13:55:44.535Z,2.20
2019-05-03T14:00:06.109Z,1.93
2019-05-03T14:04:26.080Z,1.90
2019-05-03T14:08:42.598Z,2.07
2019-05-03T14:12:59.100Z,2.30
2019-05-03T14:17:15.907Z,2.10
2019-05-03T14:21:37.145Z,1.80
2019-05-03T14:25:55.247Z,1.73
2019-05-03T14:30:14.517Z,1.83
2019-05-03T14:34:31.787Z,1.70
2019-05-03T14:38:48.342Z,1.90
2019-05-03T14:43:04.957Z,2.20
2019-05-03T14:47:21.450Z,2.27
2019-05-03T14:51:38.147Z,1.93
2019-05-03T14:55:59.623Z,2.00
2019-05-03T15:00:22.089Z,1.80
2019-05-03T15:04:38.711Z,2.03
2019-05-03T15:08:55.603Z,2.43
2019-05-03T15:13:12.142Z,2.37
2019-05-03T15:17:28.930Z,1.60
2019-05-03T15:21:45.692Z,2.37
2019-05-03T15:26:05.045Z,2.30
2019-05-03T15:30:21.857Z,2.17
2019-05-03T15:34:38.697Z,2.60
2019-05-03T15:38:55.288Z,2.50
2019-05-03T15:43:20.258Z,2.63
2019-05-03T15:47:49.352Z,2.23
2019-05-03T15:52:05.973Z,2.67
2019-05-03T15:56:25.077Z,3.37
2019-05-03T16:00:41.697Z,2.60
2019-05-03T16:04:58.821Z,2.30
2019-05-03T16:09:24.492Z,3.27
2019-05-03T16:13:41.048Z,2.77
2019-05-03T16:17:57.874Z,2.30
2019-05-03T16:22:14.767Z,2.37
2019-05-03T16:26:31.604Z,2.70
2019-05-03T16:30:50.288Z,2.83
2019-05-03T16:35:07.046Z,2.47
2019-05-03T16:39:24.427Z,2.90
2019-05-03T16:43:42.676Z,2.67
2019-05-03T16:47:59.590Z,2.03
2019-05-03T16:52:17.486Z,2.70
2019-05-03T16:56:35.269Z,2.70
2019-05-03T17:00:52.314Z,2.87
2019-05-03T17:05:15.454Z,1.80
2019-05-03T17:09:45.736Z,4.13
2019-05-03T17:14:02.381Z,3.13
2019-05-03T17:18:18.890Z,2.40
2019-05-03T17:22:35.418Z,2.00
2019-05-03T17:26:52.495Z,1.80
2019-05-03T17:31:09.397Z,2.20
2019-05-03T17:35:25.880Z,2.37
2019-05-03T17:39:47.424Z,2.17
2019-05-03T17:44:05.856Z,1.60
2019-05-03T17:48:34.516Z,1.70
2019-05-03T17:53:10.610Z,1.70
2019-05-03T17:57:41.272Z,1.70
2019-05-03T18:02:15.352Z,1.50
2019-05-03T18:06:38.487Z,1.47
2019-05-03T18:11:00.332Z,1.00
2019-05-03T18:15:16.996Z,0.90
2019-05-03T18:19:34.861Z,1.10
2019-05-03T18:23:51.432Z,1.17
2019-05-03T18:28:10.172Z,1.10
2019-05-03T18:32:29.028Z,1.10
2019-05-03T18:36:45.553Z,1.30
2019-05-03T18:41:04.546Z,1.23
2019-05-03T18:45:22.403Z,1.33
2019-05-03T18:49:39.526Z,1.10
2019-05-03T18:53:56.177Z,1.70
2019-05-03T18:58:14.861Z,1.90
2019-05-03T19:02:31.631Z,2.27
2019-05-03T19:07:01.313Z,2.20
2019-05-03T19:11:27.063Z,2.30
2019-05-03T19:15:44.021Z,2.40
2019-05-03T19:20:01.043Z,2.00
2019-05-03T19:24:18.964Z,2.00
2019-05-03T19:28:36.914Z,1.93
2019-05-03T19:32:55.260Z,2.00
2019-05-03T19:37:12.077Z,1.80
2019-05-03T19:41:30.632Z,2.30
2019-05-03T19:45:47.589Z,1.83
2019-05-03T19:50:05.464Z,1.57
2019-05-03T19:54:23.240Z,1.87
2019-05-03T19:58:40.073Z,1.63
2019-05-03T20:03:08.072Z,2.17
2019-05-03T20:07:34.739Z,1.73
2019-05-03T20:11:52.664Z,1.70
2019-05-03T20:16:09.603Z,1.77
2019-05-03T20:20:28.089Z,2.10
2019-05-03T20:24:45.777Z,1.70
2019-05-03T20:29:04.293Z,1.50
2019-05-03T20:33:21.060Z,2.40
2019-05-03T20:37:38.877Z,1.80
2019-05-03T20:41:55.862Z,2.10
2019-05-03T20:46:15.396Z,2.20
2019-05-03T20:50:32.370Z,2.00
2019-05-03T20:54:49.949Z,1.90
2019-05-03T20:59:06.428Z,2.00
2019-05-03T21:03:24.801Z,2.10
2019-05-03T21:07:41.566Z,2.13
2019-05-03T21:11:58.107Z,2.70
2019-05-03T21:16:26.318Z,2.30
2019-05-03T21:20:47.747Z,1.93
2019-05-03T21:25:08.372Z,1.70
2019-05-03T21:29:24.989Z,1.97
2019-05-03T21:33:44.477Z,1.70
2019-05-03T21:38:01.618Z,1.43
2019-05-03T21:42:18.090Z,2.00
2019-05-03T21:46:36.481Z,1.70
2019-05-03T21:50:53.007Z,1.50
2019-05-03T21:55:09.649Z,1.70
2019-05-03T21:59:26.600Z,3.07
2019-05-03T22:03:44.833Z,3.23
2019-05-03T22:08:01.418Z,2.43
2019-05-03T22:12:18.128Z,2.30
2019-05-03T22:16:36.500Z,1.90
2019-05-03T22:21:05.527Z,1.83
2019-05-03T22:25:26.950Z,2.00
2019-05-03T22:29:44.730Z,2.07
2019-05-03T22:34:01.371Z,2.03
2019-05-03T22:38:17.957Z,2.10
2019-05-03T22:42:34.698Z,2.10
2019-05-03T22:46:51.387Z,3.00
2019-05-03T22:51:07.916Z,2.40
2019-05-03T22:55:24.785Z,1.83
2019-05-03T22:59:41.292Z,2.40
2019-05-03T23:03:57.899Z,1.87
2019-05-03T23:08:27.612Z,2.30
2019-05-03T23:12:45.188Z,2.40
2019-05-03T23:17:01.882Z,2.20
2019-05-03T23:21:20.326Z,2.80
2019-05-03T23:25:36.865Z,2.03
2019-05-03T23:29:54.515Z,2.90
2019-05-03T23:34:11.226Z,2.13
2019-05-03T23:38:27.675Z,2.50
2019-05-03T23:42:44.270Z,2.20
2019-05-03T23:47:09.550Z,2.20
2019-05-03T23:51:44.877Z,3.17
2019-05-03T23:56:04.511Z,2.50
